Time;durP1;ratioP1;P1;durP2;ratioP2;P2;SDS_P1;SDS_P2;PMS_P1;PMS_P2;Temp;Humidity;BMP_temperature;BMP_pressure;BME280_temperature;BME280_humidity;BME280_pressure;Samples;Min_cycle;Max_cycle;Signal;HPM_P1;HPM_P2
2023/12/22 00:02:13;;;;;;;10.43;1.67;;;;;;;;;;5064620;28;20057;-54
2023/12/22 00:04:39;;;;;;;8.30;2.08;;;;;;;;;;5063969;28;20080;-60
2023/12/22 00:07:06;;;;;;;8.55;1.65;;;;;;;;;;5064354;28;20053;-55
2023/12/22 00:09:32;;;;;;;5.85;1.23;;;;;;;;;;5064597;28;20136;-57
2023/12/22 00:11:58;;;;;;;6.75;1.02;;;;;;;;;;5063741;28;20589;-56
2023/12/22 00:14:25;;;;;;;7.93;1.30;;;;;;;;;;5063297;28;20140;-58
2023/12/22 00:16:51;;;;;;;11.15;1.45;;;;;;;;;;5064001;28;20110;-57
2023/12/22 00:19:18;;;;;;;8.02;1.40;;;;;;;;;;5064747;28;20439;-57
2023/12/22 00:21:44;;;;;;;7.45;1.55;;;;;;;;;;5063951;28;20052;-58
2023/12/22 00:24:10;;;;;;;7.25;1.63;;;;;;;;;;5063193;28;20063;-58
2023/12/22 00:26:37;;;;;;;5.25;1.10;;;;;;;;;;5062637;28;20057;-56
2023/12/22 00:29:03;;;;;;;5.45;1.52;;;;;;;;;;5063427;28;20060;-57
2023/12/22 00:31:30;;;;;;;4.25;1.02;;;;;;;;;;5064494;28;20122;-57
2023/12/22 00:33:56;;;;;;;5.80;1.63;;;;;;;;;;5063384;28;20053;-56
2023/12/22 00:36:24;;;;;;;8.57;1.00;;;;;;;;;;5063599;28;20045;-57
2023/12/22 00:38:51;;;;;;;3.42;1.08;;;;;;;;;;5063514;28;20818;-56
2023/12/22 00:41:17;;;;;;;11.05;1.23;;;;;;;;;;5063696;28;20065;-57
2023/12/22 00:43:44;;;;;;;10.35;1.13;;;;;;;;;;5062818;28;20055;-56
2023/12/22 00:46:10;;;;;;;2.72;1.00;;;;;;;;;;5063309;28;20052;-56
2023/12/22 00:48:37;;;;;;;6.40;1.83;;;;;;;;;;5062983;28;20754;-57
2023/12/22 00:51:03;;;;;;;2.08;0.70;;;;;;;;;;5064567;28;20056;-56
2023/12/22 00:53:30;;;;;;;4.82;1.05;;;;;;;;;;5063559;28;20415;-57
2023/12/22 00:55:56;;;;;;;8.23;1.45;;;;;;;;;;5063052;28;20471;-57
2023/12/22 00:58:22;;;;;;;8.80;1.42;;;;;;;;;;5062801;28;20049;-56
2023/12/22 01:00:49;;;;;;;5.72;1.45;;;;;;;;;;5063864;28;20057;-56
2023/12/22 01:03:15;;;;;;;12.68;1.88;;;;;;;;;;5062996;28;20103;-57
2023/12/22 01:05:42;;;;;;;6.47;1.40;;;;;;;;;;5061920;28;20612;-58
2023/12/22 01:08:08;;;;;;;7.10;1.70;;;;;;;;;;5062720;28;20060;-57
2023/12/22 01:10:35;;;;;;;6.40;1.00;;;;;;;;;;5062884;28;20103;-56
2023/12/22 01:13:01;;;;;;;5.60;1.17;;;;;;;;;;5063328;28;20049;-56
2023/12/22 01:15:28;;;;;;;10.05;1.83;;;;;;;;;;5062870;28;20108;-57
2023/12/22 01:17:54;;;;;;;7.43;1.42;;;;;;;;;;5063010;28;20057;-57
2023/12/22 01:20:21;;;;;;;7.35;1.52;;;;;;;;;;5063015;28;20061;-56
2023/12/22 01:22:48;;;;;;;6.45;1.30;;;;;;;;;;5063863;28;20052;-57
2023/12/22 01:25:14;;;;;;;6.45;1.70;;;;;;;;;;5062492;28;20064;-55
2023/12/22 01:27:40;;;;;;;10.63;2.40;;;;;;;;;;5061971;28;20056;-57
2023/12/22 01:30:07;;;;;;;9.93;1.42;;;;;;;;;;5062887;28;20057;-56
2023/12/22 01:32:36;;;;;;;6.85;1.60;;;;;;;;;;5063122;28;20049;-56
2023/12/22 01:35:09;;;;;;;9.27;1.50;;;;;;;;;;5063213;28;20049;-56
2023/12/22 01:37:38;;;;;;;9.02;2.17;;;;;;;;;;5062412;28;20053;-57
2023/12/22 01:40:05;;;;;;;8.20;1.95;;;;;;;;;;5062797;28;20059;-56
2023/12/22 01:42:31;;;;;;;10.23;1.75;;;;;;;;;;5061625;28;20490;-58
2023/12/22 01:44:57;;;;;;;5.20;1.30;;;;;;;;;;5062850;28;20068;-56
2023/12/22 01:47:24;;;;;;;10.30;1.50;;;;;;;;;;5060737;28;20072;-57
2023/12/22 01:49:51;;;;;;;10.27;1.35;;;;;;;;;;5062822;28;20056;-57
2023/12/22 01:52:18;;;;;;;11.55;1.88;;;;;;;;;;5062931;28;20201;-56
2023/12/22 01:54:45;;;;;;;13.25;2.35;;;;;;;;;;5062290;28;20049;-57
2023/12/22 01:57:13;;;;;;;14.68;1.75;;;;;;;;;;5060643;28;20104;-56
2023/12/22 01:59:39;;;;;;;11.95;2.28;;;;;;;;;;5062155;28;20636;-56
2023/12/22 02:02:06;;;;;;;9.55;3.05;;;;;;;;;;5060824;28;20060;-57
2023/12/22 02:04:32;;;;;;;16.52;2.33;;;;;;;;;;5061643;28;20053;-56
2023/12/22 02:07:01;;;;;;;10.65;2.47;;;;;;;;;;5063006;28;20088;-56
2023/12/22 02:09:27;;;;;;;20.05;3.45;;;;;;;;;;5062556;28;20485;-55
2023/12/22 02:11:53;;;;;;;16.17;2.22;;;;;;;;;;5061443;28;20578;-56
2023/12/22 02:14:20;;;;;;;12.40;2.65;;;;;;;;;;5061845;28;20053;-57
2023/12/22 02:17:05;;;;;;;13.63;1.83;;;;;;;;;;5062260;28;20053;-57
2023/12/22 02:19:40;;;;;;;13.03;2.10;;;;;;;;;;5062813;28;20066;-56
2023/12/22 02:22:06;;;;;;;17.57;2.50;;;;;;;;;;5061818;28;20092;-56
2023/12/22 02:24:35;;;;;;;17.30;2.70;;;;;;;;;;5061816;28;20559;-57
2023/12/22 02:27:06;;;;;;;13.50;2.15;;;;;;;;;;5060378;28;20053;-55
2023/12/22 02:29:36;;;;;;;11.30;2.53;;;;;;;;;;5062301;28;20053;-56
2023/12/22 02:32:06;;;;;;;16.92;2.97;;;;;;;;;;5062079;28;20049;-56
2023/12/22 02:34:35;;;;;;;10.75;2.30;;;;;;;;;;5060628;28;20053;-56
2023/12/22 02:37:03;;;;;;;19.75;3.47;;;;;;;;;;5061341;28;20049;-56
2023/12/22 02:39:29;;;;;;;13.65;2.92;;;;;;;;;;5060642;28;20045;-56
2023/12/22 02:41:56;;;;;;;16.35;2.95;;;;;;;;;;5063000;28;20140;-56
2023/12/22 02:44:22;;;;;;;15.25;3.30;;;;;;;;;;5061084;28;20111;-56
2023/12/22 02:46:49;;;;;;;20.10;3.10;;;;;;;;;;5061570;28;20134;-56
2023/12/22 02:49:15;;;;;;;23.77;3.30;;;;;;;;;;5061993;28;20057;-56
2023/12/22 02:51:42;;;;;;;19.02;5.07;;;;;;;;;;5062646;28;20053;-54
2023/12/22 02:54:08;;;;;;;21.75;4.72;;;;;;;;;;5061172;28;20053;-55
2023/12/22 02:56:35;;;;;;;22.23;3.47;;;;;;;;;;5060829;28;20107;-56
2023/12/22 02:59:01;;;;;;;14.98;2.85;;;;;;;;;;5061297;28;20089;-56
2023/12/22 03:01:28;;;;;;;15.50;3.60;;;;;;;;;;5061607;28;20060;-57
2023/12/22 03:03:54;;;;;;;26.85;3.88;;;;;;;;;;5061896;28;20065;-56
2023/12/22 03:06:20;;;;;;;20.05;2.60;;;;;;;;;;5062478;28;20060;-55
2023/12/22 03:08:47;;;;;;;16.42;3.15;;;;;;;;;;5064196;28;20383;-55
2023/12/22 03:11:13;;;;;;;18.90;2.92;;;;;;;;;;5063538;28;20052;-56
2023/12/22 03:13:39;;;;;;;22.02;3.28;;;;;;;;;;5065233;28;20662;-55
2023/12/22 03:16:09;;;;;;;14.93;3.22;;;;;;;;;;5064540;28;20084;-54
2023/12/22 03:18:37;;;;;;;14.50;3.17;;;;;;;;;;5064616;28;20056;-57
2023/12/22 03:21:03;;;;;;;26.25;3.72;;;;;;;;;;5064794;28;20053;-55
2023/12/22 03:23:30;;;;;;;16.73;3.55;;;;;;;;;;5064493;28;20057;-56
2023/12/22 03:25:56;;;;;;;16.63;3.72;;;;;;;;;;5064214;28;20048;-57
2023/12/22 03:28:23;;;;;;;16.23;3.42;;;;;;;;;;5064999;28;20060;-56
2023/12/22 03:30:50;;;;;;;15.30;2.70;;;;;;;;;;5064732;28;20724;-55
2023/12/22 03:33:16;;;;;;;19.45;3.92;;;;;;;;;;5065426;28;20107;-54
2023/12/22 03:35:43;;;;;;;8.57;1.85;;;;;;;;;;5064581;28;20096;-56
2023/12/22 03:38:09;;;;;;;5.97;1.42;;;;;;;;;;5064054;28;20049;-57
2023/12/22 03:40:35;;;;;;;9.05;1.90;;;;;;;;;;5064085;28;20061;-57
2023/12/22 03:43:02;;;;;;;7.88;1.70;;;;;;;;;;5064185;28;20053;-55
2023/12/22 03:45:28;;;;;;;5.68;1.73;;;;;;;;;;5064958;28;20052;-56
2023/12/22 03:47:54;;;;;;;10.80;1.88;;;;;;;;;;5064313;28;20504;-55
2023/12/22 03:50:21;;;;;;;7.70;1.30;;;;;;;;;;5064189;28;20118;-56
2023/12/22 03:52:48;;;;;;;9.82;1.48;;;;;;;;;;5063787;28;20719;-57
2023/12/22 03:55:14;;;;;;;5.15;0.98;;;;;;;;;;5064881;28;20057;-57
2023/12/22 03:57:41;;;;;;;8.98;1.23;;;;;;;;;;5063913;28;20049;-56
2023/12/22 04:00:08;;;;;;;11.65;1.10;;;;;;;;;;5064090;28;20140;-57
2023/12/22 04:02:34;;;;;;;4.03;1.05;;;;;;;;;;5063605;28;20500;-56
2023/12/22 04:05:00;;;;;;;12.45;1.70;;;;;;;;;;5064422;28;20051;-57
2023/12/22 04:07:27;;;;;;;8.05;1.25;;;;;;;;;;5063967;28;20588;-57
2023/12/22 04:09:53;;;;;;;5.82;1.33;;;;;;;;;;5064377;28;20696;-57
2023/12/22 04:12:20;;;;;;;6.57;1.30;;;;;;;;;;5063828;28;20079;-56
2023/12/22 04:14:46;;;;;;;11.00;1.30;;;;;;;;;;5063905;28;20546;-56
2023/12/22 04:17:12;;;;;;;10.00;1.95;;;;;;;;;;5064569;28;21000;-54
2023/12/22 04:19:39;;;;;;;10.10;1.75;;;;;;;;;;5064117;28;20057;-55
2023/12/22 04:22:05;;;;;;;10.13;1.50;;;;;;;;;;5063390;28;20821;-55
2023/12/22 04:24:32;;;;;;;8.52;1.75;;;;;;;;;;5063268;28;20053;-56
2023/12/22 04:26:58;;;;;;;12.95;2.45;;;;;;;;;;5064114;28;20065;-57
2023/12/22 04:29:24;;;;;;;10.93;1.88;;;;;;;;;;5064083;28;20538;-56
2023/12/22 04:31:51;;;;;;;12.40;2.88;;;;;;;;;;5063742;28;20060;-57
2023/12/22 04:34:17;;;;;;;9.02;1.60;;;;;;;;;;5063879;28;20060;-57
2023/12/22 04:36:44;;;;;;;12.15;1.80;;;;;;;;;;5063818;28;20053;-55
2023/12/22 04:39:10;;;;;;;20.63;2.67;;;;;;;;;;5063530;28;20053;-57
2023/12/22 04:41:37;;;;;;;12.88;1.95;;;;;;;;;;5063186;28;20619;-56
2023/12/22 04:44:03;;;;;;;10.68;2.42;;;;;;;;;;5063042;28;20516;-58
2023/12/22 04:46:30;;;;;;;15.48;2.40;;;;;;;;;;5062728;28;20048;-57
2023/12/22 04:48:56;;;;;;;13.77;3.22;;;;;;;;;;5064607;28;20144;-56
2023/12/22 04:51:23;;;;;;;10.55;2.00;;;;;;;;;;5063384;28;20041;-57
2023/12/22 04:53:49;;;;;;;13.40;2.70;;;;;;;;;;5062992;28;20053;-56
2023/12/22 04:56:16;;;;;;;13.70;2.03;;;;;;;;;;5062695;28;20045;-55
2023/12/22 04:58:42;;;;;;;13.80;2.47;;;;;;;;;;5063788;28;20048;-56
2023/12/22 05:01:09;;;;;;;11.52;2.65;;;;;;;;;;5063387;28;20451;-57
2023/12/22 05:03:35;;;;;;;17.77;2.55;;;;;;;;;;5062818;28;20079;-57
2023/12/22 05:06:02;;;;;;;16.75;2.42;;;;;;;;;;5061877;28;20049;-55
2023/12/22 05:08:28;;;;;;;13.43;2.88;;;;;;;;;;5063970;28;20057;-55
2023/12/22 05:10:55;;;;;;;14.10;2.55;;;;;;;;;;5062809;28;20541;-57
2023/12/22 05:13:21;;;;;;;18.70;3.08;;;;;;;;;;5063628;28;20430;-57
2023/12/22 05:15:48;;;;;;;26.08;3.83;;;;;;;;;;5062892;28;20365;-57
2023/12/22 05:18:14;;;;;;;17.40;2.88;;;;;;;;;;5063717;28;20495;-56
2023/12/22 05:20:41;;;;;;;23.35;3.35;;;;;;;;;;5062872;28;20578;-55
2023/12/22 05:23:08;;;;;;;14.00;3.83;;;;;;;;;;5062752;28;20503;-57
2023/12/22 05:25:34;;;;;;;21.08;3.70;;;;;;;;;;5062383;28;20053;-57
2023/12/22 05:28:00;;;;;;;15.52;3.55;;;;;;;;;;5062256;28;20140;-57
2023/12/22 05:30:27;;;;;;;16.67;2.45;;;;;;;;;;5061465;28;20533;-56
2023/12/22 05:32:54;;;;;;;18.98;2.90;;;;;;;;;;5062879;28;20053;-56
2023/12/22 05:35:21;;;;;;;15.05;2.50;;;;;;;;;;5061900;28;20053;-57
2023/12/22 05:37:50;;;;;;;14.15;2.17;;;;;;;;;;5062699;28;20521;-55
2023/12/22 05:40:17;;;;;;;17.90;2.28;;;;;;;;;;5061632;28;20063;-57
2023/12/22 05:42:43;;;;;;;11.27;1.98;;;;;;;;;;5062032;28;20057;-57
2023/12/22 05:45:11;;;;;;;14.50;2.22;;;;;;;;;;5061791;28;20064;-56
2023/12/22 05:47:37;;;;;;;11.45;3.03;;;;;;;;;;5062142;28;20514;-57
2023/12/22 05:50:04;;;;;;;11.25;2.40;;;;;;;;;;5061762;28;20049;-57
2023/12/22 05:52:30;;;;;;;9.05;2.13;;;;;;;;;;5051113;28;20061;-56
2023/12/22 05:54:57;;;;;;;9.65;2.53;;;;;;;;;;5057019;28;20064;-57
2023/12/22 05:57:25;;;;;;;17.70;3.05;;;;;;;;;;5062085;28;20057;-56
2023/12/22 05:59:51;;;;;;;14.00;3.85;;;;;;;;;;5060975;28;20110;-57
2023/12/22 06:02:17;;;;;;;14.38;2.78;;;;;;;;;;5052590;28;20107;-57
2023/12/22 06:04:44;;;;;;;14.38;2.72;;;;;;;;;;5062256;28;20106;-57
2023/12/22 06:07:11;;;;;;;11.07;2.22;;;;;;;;;;5061725;28;20136;-56
2023/12/22 06:09:37;;;;;;;18.30;2.15;;;;;;;;;;5062165;28;20506;-55
2023/12/22 06:12:04;;;;;;;15.65;2.22;;;;;;;;;;5062925;28;20053;-57
2023/12/22 06:14:32;;;;;;;13.07;2.30;;;;;;;;;;5062109;28;20059;-57
2023/12/22 06:16:58;;;;;;;15.23;2.33;;;;;;;;;;5061929;28;20481;-57
2023/12/22 06:19:28;;;;;;;11.32;2.53;;;;;;;;;;5062068;28;20057;-57
2023/12/22 06:21:54;;;;;;;13.40;3.47;;;;;;;;;;5058891;28;20146;-55
2023/12/22 06:24:21;;;;;;;16.05;2.75;;;;;;;;;;5062275;28;20523;-54
2023/12/22 06:26:47;;;;;;;16.67;2.30;;;;;;;;;;5059627;28;20059;-52
2023/12/22 06:29:14;;;;;;;11.73;2.10;;;;;;;;;;5062163;28;20053;-53
2023/12/22 06:31:40;;;;;;;13.63;1.85;;;;;;;;;;5061188;28;20379;-55
2023/12/22 06:34:07;;;;;;;15.27;2.65;;;;;;;;;;5062572;28;20057;-56
2023/12/22 06:36:34;;;;;;;13.93;3.05;;;;;;;;;;5061208;28;20553;-54
2023/12/22 06:39:00;;;;;;;12.55;2.78;;;;;;;;;;5061397;28;20063;-54
2023/12/22 06:41:27;;;;;;;18.92;3.72;;;;;;;;;;5055640;28;20516;-56
2023/12/22 06:43:54;;;;;;;18.95;2.78;;;;;;;;;;5058362;28;20116;-55
2023/12/22 06:46:22;;;;;;;12.15;3.08;;;;;;;;;;5065240;28;20398;-55
2023/12/22 06:48:49;;;;;;;15.60;3.58;;;;;;;;;;5067862;28;20132;-57
2023/12/22 06:51:19;;;;;;;15.88;2.80;;;;;;;;;;5060501;28;20172;-57
2023/12/22 06:53:46;;;;;;;23.00;3.83;;;;;;;;;;5060745;28;20499;-56
2023/12/22 06:56:20;;;;;;;19.25;3.60;;;;;;;;;;5061070;28;20049;-56
2023/12/22 06:58:48;;;;;;;12.18;3.13;;;;;;;;;;5059970;28;20140;-55
2023/12/22 07:01:21;;;;;;;21.02;3.88;;;;;;;;;;5060499;28;20483;-56
2023/12/22 07:03:48;;;;;;;16.33;3.53;;;;;;;;;;5061114;28;20546;-57
2023/12/22 07:06:16;;;;;;;21.75;4.90;;;;;;;;;;5061346;28;20049;-56
2023/12/22 07:08:43;;;;;;;15.80;3.70;;;;;;;;;;5060461;28;20472;-56
2023/12/22 07:11:10;;;;;;;24.10;3.67;;;;;;;;;;5059238;28;20645;-56
2023/12/22 07:13:36;;;;;;;22.85;4.05;;;;;;;;;;5059701;28;20057;-55
2023/12/22 07:16:03;;;;;;;18.83;3.42;;;;;;;;;;5059765;28;20423;-57
2023/12/22 07:18:30;;;;;;;13.73;3.25;;;;;;;;;;5061426;28;20053;-55
2023/12/22 07:20:57;;;;;;;17.73;4.22;;;;;;;;;;5060620;28;20055;-56
2023/12/22 07:23:24;;;;;;;25.48;6.35;;;;;;;;;;5060993;28;20064;-56
2023/12/22 07:25:50;;;;;;;21.73;4.00;;;;;;;;;;5059583;28;20498;-56
2023/12/22 07:28:17;;;;;;;20.73;4.50;;;;;;;;;;5061589;28;20053;-57
2023/12/22 07:30:43;;;;;;;18.45;4.15;;;;;;;;;;5060118;28;20575;-56
2023/12/22 07:33:10;;;;;;;23.33;4.38;;;;;;;;;;5059047;28;20059;-57
2023/12/22 07:35:37;;;;;;;29.08;5.32;;;;;;;;;;5060111;28;20538;-56
2023/12/22 07:38:04;;;;;;;21.50;4.35;;;;;;;;;;5061051;28;20053;-56
2023/12/22 07:40:30;;;;;;;19.63;4.32;;;;;;;;;;5060083;28;20053;-58
2023/12/22 07:42:57;;;;;;;23.08;4.82;;;;;;;;;;5071937;28;20543;-57
2023/12/22 07:45:24;;;;;;;27.13;4.63;;;;;;;;;;5072285;28;20057;-57
2023/12/22 07:47:50;;;;;;;22.63;3.50;;;;;;;;;;5059814;28;20049;-57
2023/12/22 07:50:17;;;;;;;20.45;3.83;;;;;;;;;;5060915;28;20514;-57
2023/12/22 07:52:45;;;;;;;15.85;2.95;;;;;;;;;;5062924;28;20056;-56
2023/12/22 07:55:12;;;;;;;19.50;4.43;;;;;;;;;;5062431;28;20055;-56
2023/12/22 07:57:38;;;;;;;22.02;3.17;;;;;;;;;;5073978;28;20053;-57
2023/12/22 08:00:05;;;;;;;16.60;3.13;;;;;;;;;;5063685;28;20053;-56
2023/12/22 08:02:31;;;;;;;19.25;3.25;;;;;;;;;;5076582;28;20513;-56
2023/12/22 08:04:58;;;;;;;19.95;3.45;;;;;;;;;;5072356;28;20107;-57
2023/12/22 08:07:24;;;;;;;28.75;4.35;;;;;;;;;;5069850;28;20212;-57
2023/12/22 08:09:51;;;;;;;17.50;4.10;;;;;;;;;;5064117;28;20053;-57
2023/12/22 08:12:17;;;;;;;23.02;4.55;;;;;;;;;;5070965;28;20056;-56
2023/12/22 08:14:44;;;;;;;17.98;3.95;;;;;;;;;;5067858;28;20048;-56
2023/12/22 08:17:10;;;;;;;29.70;5.07;;;;;;;;;;5063032;28;20079;-56
2023/12/22 08:19:37;;;;;;;25.25;4.38;;;;;;;;;;5063222;28;20552;-57
2023/12/22 08:22:05;;;;;;;24.35;5.07;;;;;;;;;;5063848;28;20049;-56
2023/12/22 08:24:34;;;;;;;25.83;5.15;;;;;;;;;;5061788;28;20057;-57
2023/12/22 08:27:00;;;;;;;25.75;5.32;;;;;;;;;;5070723;28;20077;-56
2023/12/22 08:29:27;;;;;;;22.98;4.28;;;;;;;;;;5078601;28;20527;-55
2023/12/22 08:31:53;;;;;;;20.02;4.68;;;;;;;;;;5063502;28;20149;-54
2023/12/22 08:34:20;;;;;;;14.90;3.65;;;;;;;;;;5063085;28;20057;-56
2023/12/22 08:36:46;;;;;;;26.73;4.95;;;;;;;;;;5067442;28;20055;-56
2023/12/22 08:39:13;;;;;;;23.23;2.83;;;;;;;;;;5066180;28;20053;-55
2023/12/22 08:41:40;;;;;;;12.77;2.92;;;;;;;;;;5062996;28;20045;-56
2023/12/22 08:44:07;;;;;;;16.77;3.08;;;;;;;;;;5061209;28;20049;-55
2023/12/22 08:46:34;;;;;;;16.90;2.95;;;;;;;;;;5065600;28;20815;-55
2023/12/22 08:49:00;;;;;;;20.35;3.05;;;;;;;;;;5075767;28;20404;-55
2023/12/22 08:51:27;;;;;;;17.27;2.78;;;;;;;;;;5062696;28;20068;-56
2023/12/22 08:53:57;;;;;;;12.35;3.53;;;;;;;;;;5062700;28;20049;-56
2023/12/22 08:56:24;;;;;;;22.63;3.60;;;;;;;;;;5062436;28;20049;-55
2023/12/22 08:58:54;;;;;;;18.45;3.30;;;;;;;;;;5062971;28;20056;-55
2023/12/22 09:01:22;;;;;;;20.13;3.50;;;;;;;;;;5062944;28;20055;-56
2023/12/22 09:03:48;;;;;;;15.95;3.88;;;;;;;;;;5062250;28;20141;-56
2023/12/22 09:06:15;;;;;;;19.67;3.45;;;;;;;;;;5062200;28;20056;-55
2023/12/22 09:08:42;;;;;;;23.65;4.10;;;;;;;;;;5066367;28;20103;-56
2023/12/22 09:11:10;;;;;;;25.38;3.72;;;;;;;;;;5050294;28;20138;-56
2023/12/22 09:13:37;;;;;;;17.98;2.92;;;;;;;;;;5061834;28;20543;-57
2023/12/22 09:16:04;;;;;;;14.80;3.08;;;;;;;;;;5077427;28;20057;-56
2023/12/22 09:18:31;;;;;;;16.33;3.17;;;;;;;;;;5062425;28;20057;-58
2023/12/22 09:20:57;;;;;;;19.60;3.42;;;;;;;;;;5062083;28;20543;-57
2023/12/22 09:23:24;;;;;;;9.85;2.30;;;;;;;;;;5073869;28;20060;-55
2023/12/22 09:25:50;;;;;;;7.45;1.17;;;;;;;;;;5050593;28;20530;-56
2023/12/22 09:28:17;;;;;;;6.03;1.70;;;;;;;;;;5060799;28;20140;-57
2023/12/22 09:30:43;;;;;;;2.97;0.65;;;;;;;;;;5062799;28;20060;-57
2023/12/22 09:33:10;;;;;;;4.25;0.82;;;;;;;;;;5062785;28;20134;-56
2023/12/22 09:35:36;;;;;;;4.82;0.57;;;;;;;;;;5062539;28;20378;-55
2023/12/22 09:38:03;;;;;;;7.97;1.15;;;;;;;;;;5073936;28;20139;-55
2023/12/22 09:40:30;;;;;;;1.70;0.57;;;;;;;;;;5068450;28;20084;-56
2023/12/22 09:42:57;;;;;;;2.97;0.80;;;;;;;;;;5061567;28;20114;-53
2023/12/22 09:45:24;;;;;;;5.78;1.13;;;;;;;;;;5062030;28;20408;-54
2023/12/22 09:47:51;;;;;;;4.68;2.17;;;;;;;;;;5062222;28;20053;-55
2023/12/22 09:50:19;;;;;;;5.05;1.15;;;;;;;;;;5062299;28;20048;-53
2023/12/22 09:52:46;;;;;;;2.65;1.00;;;;;;;;;;5062151;28;20527;-52
2023/12/22 09:55:13;;;;;;;10.30;2.17;;;;;;;;;;5061761;28;20063;-53
2023/12/22 09:57:40;;;;;;;8.60;1.52;;;;;;;;;;5061992;28;20600;-54
2023/12/22 10:00:12;;;;;;;10.07;2.33;;;;;;;;;;5061752;28;20138;-55
2023/12/22 10:02:39;;;;;;;9.20;2.60;;;;;;;;;;5063403;28;20059;-54
2023/12/22 10:05:05;;;;;;;8.23;2.03;;;;;;;;;;5062030;28;20371;-57
2023/12/22 10:07:33;;;;;;;13.93;2.75;;;;;;;;;;5062609;28;20596;-51
2023/12/22 10:10:00;;;;;;;8.13;2.97;;;;;;;;;;5060968;28;20118;-55
2023/12/22 10:12:27;;;;;;;10.85;2.10;;;;;;;;;;5060350;28;20053;-54
2023/12/22 10:14:54;;;;;;;8.27;2.10;;;;;;;;;;5056467;28;20053;-56
2023/12/22 10:17:20;;;;;;;8.70;2.28;;;;;;;;;;5062971;28;20064;-54
2023/12/22 10:19:47;;;;;;;8.43;2.45;;;;;;;;;;5061896;28;20063;-56
2023/12/22 10:22:13;;;;;;;10.75;2.63;;;;;;;;;;5064891;28;20518;-54
2023/12/22 10:24:44;;;;;;;5.95;2.47;;;;;;;;;;5057426;28;20053;-56
2023/12/22 10:27:11;;;;;;;7.78;1.58;;;;;;;;;;5060938;28;20057;-56
2023/12/22 10:29:38;;;;;;;13.38;2.70;;;;;;;;;;5069759;28;20522;-56
2023/12/22 10:32:04;;;;;;;10.43;1.75;;;;;;;;;;5061233;28;20502;-55
2023/12/22 10:34:34;;;;;;;13.80;2.45;;;;;;;;;;5062410;28;20057;-55
2023/12/22 10:37:00;;;;;;;15.88;3.05;;;;;;;;;;5060622;28;20569;-54
2023/12/22 10:39:28;;;;;;;8.52;2.33;;;;;;;;;;5059890;28;20140;-55
2023/12/22 10:41:55;;;;;;;12.65;2.10;;;;;;;;;;5061138;28;20476;-55
2023/12/22 10:44:23;;;;;;;8.07;1.90;;;;;;;;;;5060404;28;20150;-56
2023/12/22 10:46:50;;;;;;;9.23;2.08;;;;;;;;;;5060667;28;20623;-55
2023/12/22 10:49:16;;;;;;;14.27;2.33;;;;;;;;;;5059997;28;20424;-56
2023/12/22 10:51:43;;;;;;;23.63;4.80;;;;;;;;;;5062003;28;20078;-54
2023/12/22 10:54:10;;;;;;;13.32;2.22;;;;;;;;;;5060315;28;20761;-56
2023/12/22 10:56:36;;;;;;;11.13;2.45;;;;;;;;;;5060000;28;20806;-56
2023/12/22 10:59:03;;;;;;;14.80;2.72;;;;;;;;;;5061572;28;20148;-55
2023/12/22 11:01:30;;;;;;;8.63;2.22;;;;;;;;;;5060750;28;20053;-56
2023/12/22 11:03:59;;;;;;;8.82;1.65;;;;;;;;;;5058776;28;20045;-56
2023/12/22 11:06:28;;;;;;;8.13;2.30;;;;;;;;;;5060522;28;20060;-55
2023/12/22 11:08:57;;;;;;;11.75;2.35;;;;;;;;;;5060620;28;20059;-54
2023/12/22 11:11:39;;;;;;;9.63;2.20;;;;;;;;;;5059907;28;20118;-56
2023/12/22 11:14:06;;;;;;;6.07;1.90;;;;;;;;;;5064404;28;20494;-55
2023/12/22 11:16:33;;;;;;;11.98;2.58;;;;;;;;;;5059824;28;20053;-55
2023/12/22 11:19:03;;;;;;;9.73;1.60;;;;;;;;;;5061175;28;20107;-55
2023/12/22 11:21:30;;;;;;;10.48;1.98;;;;;;;;;;5060566;28;20068;-56
2023/12/22 11:23:57;;;;;;;8.82;2.00;;;;;;;;;;5074486;28;20080;-56
2023/12/22 11:26:24;;;;;;;13.82;2.30;;;;;;;;;;5061261;28;20053;-56
2023/12/22 11:28:51;;;;;;;15.48;1.90;;;;;;;;;;5066612;28;20081;-56
2023/12/22 11:31:18;;;;;;;8.55;1.55;;;;;;;;;;5064209;28;20088;-56
2023/12/22 11:33:46;;;;;;;13.40;2.78;;;;;;;;;;5064308;28;20096;-54
2023/12/22 11:36:30;;;;;;;8.07;1.65;;;;;;;;;;5063050;28;20057;-56
2023/12/22 11:38:57;;;;;;;7.72;1.70;;;;;;;;;;5063770;28;20511;-55
2023/12/22 11:41:28;;;;;;;9.90;2.13;;;;;;;;;;5064654;28;20107;-55
2023/12/22 11:43:56;;;;;;;12.15;1.80;;;;;;;;;;5058797;28;20067;-55
2023/12/22 11:46:23;;;;;;;8.50;2.25;;;;;;;;;;5047551;28;20053;-58
2023/12/22 11:48:51;;;;;;;17.15;2.60;;;;;;;;;;5063071;28;20057;-58
2023/12/22 11:51:18;;;;;;;8.70;1.48;;;;;;;;;;5059106;28;20061;-56
2023/12/22 11:53:45;;;;;;;5.78;2.22;;;;;;;;;;5057120;28;20053;-57
2023/12/22 11:56:12;;;;;;;7.55;1.67;;;;;;;;;;5062239;28;20424;-58
2023/12/22 11:58:43;;;;;;;10.90;2.10;;;;;;;;;;5067243;28;20586;-56
2023/12/22 12:01:13;;;;;;;10.73;1.55;;;;;;;;;;5062867;28;20049;-55
2023/12/22 12:03:51;;;;;;;8.80;1.67;;;;;;;;;;5073401;28;20271;-57
2023/12/22 12:06:23;;;;;;;10.57;1.77;;;;;;;;;;5073305;28;20906;-54
2023/12/22 12:08:50;;;;;;;9.65;1.88;;;;;;;;;;5063483;28;20055;-57
2023/12/22 12:11:18;;;;;;;7.07;1.95;;;;;;;;;;5064415;28;20060;-56
2023/12/22 12:13:45;;;;;;;5.70;2.10;;;;;;;;;;5063286;28;20470;-56
2023/12/22 12:16:12;;;;;;;8.95;1.52;;;;;;;;;;5067043;28;20067;-53
2023/12/22 12:18:39;;;;;;;12.68;1.88;;;;;;;;;;5066560;28;20147;-53
2023/12/22 12:21:09;;;;;;;7.32;1.42;;;;;;;;;;5063222;28;20162;-57
2023/12/22 12:23:35;;;;;;;11.52;2.22;;;;;;;;;;5062555;28;20053;-56
2023/12/22 12:26:02;;;;;;;6.57;1.23;;;;;;;;;;5063187;28;20053;-56
2023/12/22 12:28:29;;;;;;;6.45;1.42;;;;;;;;;;5069063;28;20052;-56
2023/12/22 12:31:05;;;;;;;8.95;1.80;;;;;;;;;;5082059;28;20529;-58
2023/12/22 12:33:32;;;;;;;11.30;1.85;;;;;;;;;;5064313;28;20076;-57
2023/12/22 12:36:00;;;;;;;4.65;1.38;;;;;;;;;;5062571;28;20652;-57
2023/12/22 12:38:42;;;;;;;8.02;1.80;;;;;;;;;;5062592;28;20057;-56
2023/12/22 12:41:09;;;;;;;6.93;1.48;;;;;;;;;;5062585;28;20103;-58
2023/12/22 12:43:36;;;;;;;42.13;25.52;;;;;;;;;;5067973;28;20552;-56
2023/12/22 12:46:03;;;;;;;48.58;33.75;;;;;;;;;;5064149;28;20064;-56
2023/12/22 12:48:30;;;;;;;6.70;1.65;;;;;;;;;;5061315;28;20299;-57
2023/12/22 12:51:06;;;;;;;11.15;2.10;;;;;;;;;;5063273;28;20103;-56
2023/12/22 12:53:33;;;;;;;14.63;2.33;;;;;;;;;;5061637;28;20049;-57
2023/12/22 12:56:00;;;;;;;12.73;2.00;;;;;;;;;;5062531;28;20053;-56
2023/12/22 12:58:30;;;;;;;9.25;1.77;;;;;;;;;;5066501;28;20085;-55
2023/12/22 13:01:04;;;;;;;11.57;2.22;;;;;;;;;;5070746;28;20076;-54
2023/12/22 13:03:30;;;;;;;7.80;2.22;;;;;;;;;;5062178;28;20615;-54
2023/12/22 13:06:06;;;;;;;9.10;1.45;;;;;;;;;;5063070;28;20064;-56
2023/12/22 13:08:33;;;;;;;12.43;2.08;;;;;;;;;;5062648;28;20053;-56
2023/12/22 13:11:11;;;;;;;15.18;2.35;;;;;;;;;;5063044;28;20431;-57
2023/12/22 13:13:41;;;;;;;10.13;2.17;;;;;;;;;;5067191;28;20048;-58
2023/12/22 13:16:08;;;;;;;10.43;2.10;;;;;;;;;;5076237;28;20053;-58
2023/12/22 13:18:35;;;;;;;10.90;1.90;;;;;;;;;;5065992;28;20167;-58
2023/12/22 13:21:03;;;;;;;10.05;2.65;;;;;;;;;;5043076;28;20522;-58
2023/12/22 13:23:29;;;;;;;17.75;2.28;;;;;;;;;;5060039;28;20284;-58
2023/12/22 13:25:59;;;;;;;8.90;1.45;;;;;;;;;;5073362;28;20082;-56
2023/12/22 13:28:27;;;;;;;9.27;1.55;;;;;;;;;;5061996;28;20219;-57
2023/12/22 13:30:53;;;;;;;6.82;1.48;;;;;;;;;;5063223;28;20052;-57
2023/12/22 13:33:20;;;;;;;11.32;1.63;;;;;;;;;;5063983;28;20065;-58
2023/12/22 13:35:47;;;;;;;11.02;1.90;;;;;;;;;;5071419;28;20155;-55
2023/12/22 13:38:13;;;;;;;4.90;1.35;;;;;;;;;;5062130;28;20495;-58
2023/12/22 13:40:45;;;;;;;11.23;1.70;;;;;;;;;;5066962;28;20156;-57
2023/12/22 13:43:12;;;;;;;9.57;2.10;;;;;;;;;;5060741;28;20057;-56
2023/12/22 13:45:38;;;;;;;7.25;1.95;;;;;;;;;;5063637;28;20605;-56
2023/12/22 13:48:05;;;;;;;8.73;1.88;;;;;;;;;;5061182;28;20430;-59
2023/12/22 13:50:33;;;;;;;10.00;1.98;;;;;;;;;;5060765;28;20096;-57
2023/12/22 13:53:09;;;;;;;10.23;1.77;;;;;;;;;;5063080;28;20064;-58
2023/12/22 13:55:38;;;;;;;10.07;1.77;;;;;;;;;;5061310;28;20700;-58
2023/12/22 13:58:04;;;;;;;10.02;2.50;;;;;;;;;;5062792;28;20053;-57
2023/12/22 14:00:31;;;;;;;6.43;1.83;;;;;;;;;;5062093;28;20061;-55
2023/12/22 14:02:58;;;;;;;11.07;1.90;;;;;;;;;;5061808;28;20079;-56
2023/12/22 14:05:25;;;;;;;12.27;2.28;;;;;;;;;;5062037;28;20226;-56
2023/12/22 14:07:53;;;;;;;9.38;1.85;;;;;;;;;;5060786;28;20346;-56
2023/12/22 14:10:20;;;;;;;14.00;2.35;;;;;;;;;;5058112;28;20092;-56
2023/12/22 14:12:47;;;;;;;9.43;2.40;;;;;;;;;;5054341;28;20059;-62
2023/12/22 14:15:13;;;;;;;12.63;1.92;;;;;;;;;;5061424;28;20163;-54
2023/12/22 14:17:42;;;;;;;13.45;2.00;;;;;;;;;;5062482;28;20134;-58
2023/12/22 14:20:09;;;;;;;7.57;1.92;;;;;;;;;;5062414;28;20053;-56
2023/12/22 14:22:37;;;;;;;15.77;2.85;;;;;;;;;;5060824;28;20049;-56
2023/12/22 14:25:04;;;;;;;6.95;1.48;;;;;;;;;;5060092;28;20107;-58
2023/12/22 14:27:30;;;;;;;7.72;2.00;;;;;;;;;;5061342;28;20057;-55
2023/12/22 14:29:57;;;;;;;11.95;2.00;;;;;;;;;;5060721;28;20076;-57
2023/12/22 14:32:23;;;;;;;10.02;3.13;;;;;;;;;;5061231;28;20530;-56
2023/12/22 14:34:50;;;;;;;11.10;1.73;;;;;;;;;;5062355;28;20049;-56